createdAt,value
2023-02-09T00:02:11.503Z,100.00
2023-02-09T00:04:40.593Z,100.00
2023-02-09T00:07:08.243Z,100.00
2023-02-09T00:09:36.082Z,100.00
2023-02-09T00:12:21.545Z,100.00
2023-02-09T00:14:50.711Z,100.00
2023-02-09T00:17:18.286Z,100.00
2023-02-09T00:19:48.370Z,100.00
2023-02-09T00:22:17.061Z,100.00
2023-02-09T00:24:46.125Z,100.00
2023-02-09T00:27:13.771Z,100.00
2023-02-09T00:29:41.570Z,100.00
2023-02-09T00:32:09.345Z,100.00
2023-02-09T00:34:40.488Z,100.00
2023-02-09T00:37:10.188Z,100.00
2023-02-09T00:39:37.922Z,99.86
2023-02-09T00:42:08.449Z,100.00
2023-02-09T00:44:41.567Z,100.00
2023-02-09T00:47:10.156Z,100.00
2023-02-09T00:49:42.523Z,100.00
2023-02-09T00:52:11.678Z,100.00
2023-02-09T00:54:39.347Z,100.00
2023-02-09T00:57:07.121Z,100.00
2023-02-09T00:59:35.835Z,100.00
2023-02-09T01:02:04.836Z,100.00
2023-02-09T01:04:32.591Z,100.00
2023-02-09T01:07:00.352Z,100.00
2023-02-09T01:09:29.727Z,100.00
2023-02-09T01:11:57.407Z,100.00
2023-02-09T01:14:25.242Z,100.00
2023-02-09T01:16:53.000Z,100.00
2023-02-09T01:19:24.628Z,100.00
2023-02-09T01:21:52.652Z,100.00
2023-02-09T01:24:21.505Z,100.00
2023-02-09T01:26:50.949Z,100.00
2023-02-09T01:29:20.383Z,100.00
2023-02-09T01:31:49.496Z,100.00
2023-02-09T01:34:18.978Z,100.00
2023-02-09T01:36:48.346Z,100.00
2023-02-09T01:39:16.181Z,100.00
2023-02-09T01:41:45.015Z,100.00
2023-02-09T01:44:50.265Z,100.00
2023-02-09T01:47:21.135Z,100.00
2023-02-09T01:49:50.981Z,100.00
2023-02-09T01:52:22.075Z,100.00
2023-02-09T01:54:54.963Z,100.00
2023-02-09T01:57:28.501Z,100.00
2023-02-09T02:00:01.349Z,100.00
2023-02-09T02:02:30.572Z,100.00
2023-02-09T02:04:58.367Z,100.00
2023-02-09T02:07:30.429Z,100.00
2023-02-09T02:09:58.674Z,100.00
2023-02-09T02:12:27.137Z,100.00
2023-02-09T02:14:54.802Z,100.00
2023-02-09T02:17:38.489Z,100.00
2023-02-09T02:20:30.891Z,100.00
2023-02-09T02:23:11.427Z,100.00
2023-02-09T02:26:12.397Z,100.00
2023-02-09T02:28:48.249Z,99.88
2023-02-09T02:31:35.895Z,99.39
2023-02-09T02:34:09.215Z,99.93
2023-02-09T02:36:43.413Z,99.81
2023-02-09T02:39:18.141Z,100.00
2023-02-09T02:42:09.720Z,99.18
2023-02-09T02:44:41.674Z,98.67
2023-02-09T02:47:15.016Z,98.56
2023-02-09T02:49:46.110Z,98.95
2023-02-09T02:52:15.480Z,98.29
2023-02-09T02:54:47.625Z,98.46
2023-02-09T02:57:18.836Z,98.25
2023-02-09T02:59:53.241Z,97.86
2023-02-09T03:02:24.402Z,97.67
2023-02-09T03:04:57.352Z,97.62
2023-02-09T03:07:25.601Z,97.22
2023-02-09T03:09:55.192Z,97.03
2023-02-09T03:12:33.346Z,96.30
2023-02-09T03:15:14.770Z,96.48
2023-02-09T03:17:49.166Z,95.74
2023-02-09T03:20:26.731Z,95.79
2023-02-09T03:22:58.681Z,94.74
2023-02-09T03:25:31.445Z,95.42
2023-02-09T03:28:04.317Z,95.18
2023-02-09T03:30:33.910Z,95.12
2023-02-09T03:33:04.827Z,95.01
2023-02-09T03:35:38.284Z,95.17
2023-02-09T03:38:09.373Z,94.50
2023-02-09T03:40:37.268Z,94.50
2023-02-09T03:43:05.069Z,93.84
2023-02-09T03:45:32.924Z,93.05
2023-02-09T03:48:09.234Z,93.13
2023-02-09T03:50:38.630Z,92.75
2023-02-09T03:53:08.773Z,91.93
2023-02-09T03:55:37.133Z,91.98
2023-02-09T03:58:04.823Z,91.38
2023-02-09T04:00:33.701Z,90.83
2023-02-09T04:03:01.609Z,90.82
2023-02-09T04:05:30.437Z,90.24
2023-02-09T04:08:00.379Z,90.46
2023-02-09T04:10:28.440Z,90.19
2023-02-09T04:12:56.118Z,90.10
2023-02-09T04:15:23.831Z,90.52
2023-02-09T04:17:53.800Z,90.29
2023-02-09T04:20:21.518Z,90.44
2023-02-09T04:22:49.264Z,90.34
2023-02-09T04:25:18.608Z,90.09
2023-02-09T04:27:46.263Z,89.54
2023-02-09T04:30:15.387Z,89.93
2023-02-09T04:32:43.137Z,89.73
2023-02-09T04:35:10.893Z,89.18
2023-02-09T04:37:40.856Z,89.85
2023-02-09T04:40:09.907Z,87.53
2023-02-09T04:42:38.839Z,88.44
2023-02-09T04:45:07.316Z,87.49
2023-02-09T04:47:34.935Z,86.26
2023-02-09T04:50:02.529Z,86.51
2023-02-09T04:52:30.217Z,85.76
2023-02-09T04:54:57.872Z,85.17
2023-02-09T04:57:43.412Z,84.71
2023-02-09T05:00:15.125Z,84.10
2023-02-09T05:02:44.462Z,83.83
2023-02-09T05:05:12.156Z,83.59
2023-02-09T05:07:42.254Z,83.84
2023-02-09T05:10:10.370Z,84.58
2023-02-09T05:12:38.198Z,84.53
2023-02-09T05:15:06.373Z,84.47
2023-02-09T05:17:35.549Z,84.84
2023-02-09T05:20:03.555Z,84.52
2023-02-09T05:22:32.508Z,84.87
2023-02-09T05:25:00.249Z,84.86
2023-02-09T05:27:27.900Z,84.74
2023-02-09T05:29:55.752Z,84.92
2023-02-09T05:32:23.510Z,84.00
2023-02-09T05:34:52.605Z,83.94
2023-02-09T05:37:20.330Z,83.39
2023-02-09T05:39:51.005Z,83.24
2023-02-09T05:42:18.736Z,84.17
2023-02-09T05:44:47.808Z,83.87
2023-02-09T05:47:17.351Z,84.19
2023-02-09T05:49:45.122Z,83.85
2023-02-09T05:52:16.619Z,84.62
2023-02-09T05:54:45.830Z,84.71
2023-02-09T05:57:13.803Z,85.04
2023-02-09T05:59:41.547Z,84.76
2023-02-09T06:02:09.623Z,84.45
2023-02-09T06:04:39.479Z,84.00
2023-02-09T06:07:09.918Z,83.87
2023-02-09T06:09:40.300Z,83.01
2023-02-09T06:12:08.117Z,84.47
2023-02-09T06:14:37.606Z,84.17
2023-02-09T06:17:05.385Z,83.83
2023-02-09T06:19:36.649Z,82.90
2023-02-09T06:22:04.734Z,83.44
2023-02-09T06:24:32.437Z,83.10
2023-02-09T06:27:02.439Z,82.66
2023-02-09T06:29:31.251Z,82.49
2023-02-09T06:32:07.212Z,82.35
2023-02-09T06:34:35.488Z,82.06
2023-02-09T06:37:03.675Z,81.97
2023-02-09T06:39:36.330Z,82.30
2023-02-09T06:42:06.581Z,81.88
2023-02-09T06:44:34.292Z,82.13
2023-02-09T06:47:04.682Z,81.70
2023-02-09T06:49:34.772Z,82.67
2023-02-09T06:52:03.978Z,83.61
2023-02-09T06:54:31.675Z,84.15
2023-02-09T06:56:59.380Z,84.92
2023-02-09T06:59:28.380Z,84.94
2023-02-09T07:01:56.156Z,85.99
2023-02-09T07:04:23.979Z,85.39
2023-02-09T07:06:51.731Z,85.47
2023-02-09T07:09:19.765Z,84.71
2023-02-09T07:11:47.577Z,83.88
2023-02-09T07:14:15.924Z,83.67
2023-02-09T07:16:46.065Z,82.99
2023-02-09T07:19:14.101Z,82.65
2023-02-09T07:21:41.841Z,83.12
2023-02-09T07:24:09.692Z,82.28
2023-02-09T07:26:37.367Z,82.23
2023-02-09T07:29:05.073Z,81.75
2023-02-09T07:31:32.928Z,81.72
2023-02-09T07:34:01.993Z,81.74
2023-02-09T07:36:29.800Z,81.04
2023-02-09T07:38:58.222Z,81.06
2023-02-09T07:41:28.883Z,80.79
2023-02-09T07:43:57.451Z,80.17
2023-02-09T07:46:25.622Z,78.07
2023-02-09T07:48:59.460Z,77.47
2023-02-09T07:51:32.358Z,77.82
2023-02-09T07:54:01.580Z,76.84
2023-02-09T07:56:30.043Z,77.60
2023-02-09T07:58:58.364Z,78.16
2023-02-09T08:01:29.087Z,78.32
2023-02-09T08:03:57.525Z,78.29
2023-02-09T08:06:42.131Z,78.39
2023-02-09T08:09:13.428Z,77.50
2023-02-09T08:11:47.392Z,77.02
2023-02-09T08:14:19.785Z,77.07
2023-02-09T08:16:50.379Z,75.12
2023-02-09T08:19:21.095Z,75.80
2023-02-09T08:21:51.204Z,75.59
2023-02-09T08:24:21.585Z,75.76
2023-02-09T08:26:50.631Z,75.49
2023-02-09T08:29:18.269Z,74.19
2023-02-09T08:31:46.508Z,75.17
2023-02-09T08:34:14.643Z,74.85
2023-02-09T08:36:45.290Z,74.65
2023-02-09T08:39:14.398Z,71.31
2023-02-09T08:41:42.159Z,72.74
2023-02-09T08:44:09.933Z,72.52
2023-02-09T08:46:39.026Z,73.08
2023-02-09T08:49:06.939Z,73.27
2023-02-09T08:51:34.796Z,73.75
2023-02-09T08:54:02.711Z,73.14
2023-02-09T08:56:31.760Z,73.42
2023-02-09T08:58:59.479Z,73.45
2023-02-09T09:01:27.401Z,71.81
2023-02-09T09:03:55.641Z,72.33
2023-02-09T09:06:23.499Z,72.07
2023-02-09T09:08:51.992Z,72.11
2023-02-09T09:11:20.776Z,72.30
2023-02-09T09:13:49.925Z,70.63
2023-02-09T09:16:19.436Z,70.37
2023-02-09T09:18:47.210Z,70.63
2023-02-09T09:21:16.826Z,70.17
2023-02-09T09:23:44.857Z,70.62
2023-02-09T09:26:12.877Z,69.23
2023-02-09T09:28:40.563Z,67.79
2023-02-09T09:31:10.535Z,67.58
2023-02-09T09:33:38.373Z,67.16
2023-02-09T09:36:07.842Z,66.78
2023-02-09T09:38:36.630Z,65.70
2023-02-09T09:41:05.195Z,65.63
2023-02-09T09:43:35.808Z,64.61
2023-02-09T09:46:05.144Z,64.42
2023-02-09T09:48:42.029Z,63.87
2023-02-09T09:51:13.954Z,63.56
2023-02-09T09:53:44.270Z,63.97
2023-02-09T09:56:14.023Z,63.81
2023-02-09T09:58:44.876Z,61.98
2023-02-09T10:01:15.036Z,61.08
2023-02-09T10:03:44.728Z,60.63
2023-02-09T10:06:16.620Z,60.40
2023-02-09T10:08:49.887Z,60.71
2023-02-09T10:11:18.772Z,61.08
2023-02-09T10:13:50.754Z,60.77
2023-02-09T10:16:21.882Z,60.67
2023-02-09T10:18:53.262Z,58.60
2023-02-09T10:21:21.172Z,59.33
2023-02-09T10:23:50.885Z,57.89
2023-02-09T10:26:24.263Z,58.09
2023-02-09T10:28:54.153Z,58.84
2023-02-09T10:31:25.340Z,58.83
2023-02-09T10:33:59.287Z,59.24
2023-02-09T10:36:30.264Z,58.43
2023-02-09T10:39:14.392Z,57.81
2023-02-09T10:41:44.371Z,57.48
2023-02-09T10:44:21.063Z,56.60
2023-02-09T10:46:49.530Z,56.43
2023-02-09T10:49:35.261Z,57.24
2023-02-09T10:52:19.040Z,56.89
2023-02-09T10:54:51.456Z,58.04
2023-02-09T10:57:25.039Z,56.38
2023-02-09T10:59:54.546Z,56.59
2023-02-09T11:02:36.979Z,56.95
2023-02-09T11:05:28.831Z,57.23
2023-02-09T11:08:02.112Z,57.27
2023-02-09T11:10:32.968Z,58.14
2023-02-09T11:13:01.024Z,57.01
2023-02-09T11:15:41.640Z,57.22
2023-02-09T11:18:16.562Z,56.36
2023-02-09T11:20:52.593Z,56.36
2023-02-09T11:23:36.913Z,56.20
2023-02-09T11:26:14.479Z,55.84
2023-02-09T11:28:52.764Z,54.66
2023-02-09T11:31:55.301Z,54.54
2023-02-09T11:34:45.391Z,55.27
2023-02-09T11:37:26.191Z,54.90
2023-02-09T11:40:02.759Z,55.04
2023-02-09T11:42:50.617Z,53.97
2023-02-09T11:45:23.500Z,53.95
2023-02-09T11:48:01.315Z,54.45
2023-02-09T11:50:34.780Z,53.28
2023-02-09T11:53:12.754Z,53.29
2023-02-09T11:55:45.145Z,53.66
2023-02-09T11:58:29.051Z,53.49
2023-02-09T12:01:14.585Z,53.36
2023-02-09T12:03:56.259Z,53.61
2023-02-09T12:06:30.252Z,54.07
2023-02-09T12:09:09.518Z,53.12
2023-02-09T12:11:46.431Z,52.99
2023-02-09T12:14:29.181Z,53.45
2023-02-09T12:17:01.615Z,53.16
2023-02-09T12:19:35.815Z,53.51
2023-02-09T12:22:37.121Z,52.90
2023-02-09T12:25:22.816Z,53.08
2023-02-09T12:28:13.504Z,52.95
2023-02-09T12:31:03.225Z,53.29
2023-02-09T12:33:36.261Z,52.64
2023-02-09T12:36:07.437Z,52.55
2023-02-09T12:38:54.525Z,52.68
2023-02-09T12:41:28.104Z,51.94
2023-02-09T12:44:26.917Z,51.69
2023-02-09T12:46:58.030Z,51.64
2023-02-09T12:49:33.771Z,51.82
2023-02-09T12:52:16.264Z,51.81
2023-02-09T12:54:48.900Z,51.86
2023-02-09T12:57:53.633Z,51.91
2023-02-09T13:00:42.102Z,50.97
2023-02-09T13:03:18.920Z,50.97
2023-02-09T13:05:48.827Z,50.61
2023-02-09T13:08:23.539Z,51.18
2023-02-09T13:10:58.393Z,51.12
2023-02-09T13:13:34.772Z,51.10
2023-02-09T13:16:32.383Z,51.16
2023-02-09T13:19:13.402Z,50.36
2023-02-09T13:21:57.185Z,50.35
2023-02-09T13:24:35.369Z,50.59
2023-02-09T13:27:04.419Z,50.46
2023-02-09T13:29:33.772Z,49.72
2023-02-09T13:32:22.353Z,50.77
2023-02-09T13:34:58.597Z,50.83
2023-02-09T13:37:33.820Z,50.80
2023-02-09T13:40:04.069Z,51.26
2023-02-09T13:42:37.087Z,51.42
2023-02-09T13:45:17.737Z,51.41
2023-02-09T13:47:46.166Z,51.89
2023-02-09T13:50:17.354Z,51.67
2023-02-09T13:52:45.296Z,52.28
2023-02-09T13:55:16.379Z,52.36
2023-02-09T13:57:46.126Z,52.38
2023-02-09T14:00:24.687Z,53.43
2023-02-09T14:02:56.202Z,52.81
2023-02-09T14:05:34.275Z,52.35
2023-02-09T14:08:02.969Z,52.38
2023-02-09T14:10:34.736Z,51.70
2023-02-09T14:13:05.571Z,51.60
2023-02-09T14:15:55.982Z,51.72
2023-02-09T14:18:29.888Z,51.99
2023-02-09T14:21:05.262Z,52.39
2023-02-09T14:23:37.856Z,52.03
2023-02-09T14:26:08.060Z,52.59
2023-02-09T14:28:37.868Z,51.92
2023-02-09T14:31:08.063Z,51.80
2023-02-09T14:33:38.514Z,51.46
2023-02-09T14:36:25.706Z,51.42
2023-02-09T14:38:55.244Z,51.74
2023-02-09T14:41:31.436Z,52.33
2023-02-09T14:44:01.644Z,52.06
2023-02-09T14:46:47.555Z,52.10
2023-02-09T14:49:16.233Z,52.26
2023-02-09T14:51:46.325Z,52.37
2023-02-09T14:54:24.266Z,52.28
2023-02-09T14:56:54.582Z,52.11
2023-02-09T14:59:23.277Z,52.39
2023-02-09T15:01:53.111Z,51.62
2023-02-09T15:04:21.171Z,52.18
2023-02-09T15:06:59.500Z,52.18
2023-02-09T15:09:33.801Z,54.09
2023-02-09T15:12:07.698Z,51.86
2023-02-09T15:14:41.453Z,51.68
2023-02-09T15:17:14.975Z,52.29
2023-02-09T15:19:43.572Z,52.72
2023-02-09T15:22:20.808Z,53.03
2023-02-09T15:24:51.786Z,52.25
2023-02-09T15:27:27.043Z,52.96
2023-02-09T15:29:57.979Z,52.35
2023-02-09T15:32:29.881Z,52.49
2023-02-09T15:34:58.593Z,52.86
2023-02-09T15:37:30.581Z,53.43
2023-02-09T15:40:02.270Z,53.12
2023-02-09T15:42:49.313Z,53.22
2023-02-09T15:45:34.055Z,53.02
2023-02-09T15:48:01.975Z,53.44
2023-02-09T15:50:30.846Z,53.55
2023-02-09T15:53:00.154Z,53.68
2023-02-09T15:55:28.639Z,53.73
2023-02-09T15:57:56.978Z,53.79
2023-02-09T16:00:27.136Z,54.18
2023-02-09T16:02:57.755Z,54.45
2023-02-09T16:05:28.120Z,54.03
2023-02-09T16:07:56.463Z,54.18
2023-02-09T16:10:27.496Z,54.46
2023-02-09T16:12:55.756Z,54.43
2023-02-09T16:15:25.882Z,54.40
2023-02-09T16:17:54.274Z,54.69
2023-02-09T16:20:23.722Z,54.89
2023-02-09T16:22:55.120Z,54.65
2023-02-09T16:25:28.221Z,54.71
2023-02-09T16:27:57.484Z,55.03
2023-02-09T16:30:27.532Z,55.33
2023-02-09T16:32:56.830Z,55.25
2023-02-09T16:35:25.808Z,55.06
2023-02-09T16:37:55.971Z,55.66
2023-02-09T16:40:28.583Z,55.38
2023-02-09T16:42:58.229Z,55.38
2023-02-09T16:45:28.614Z,55.58
2023-02-09T16:47:59.785Z,55.50
2023-02-09T16:50:32.931Z,55.39
2023-02-09T16:53:03.213Z,55.66
2023-02-09T16:55:34.119Z,55.83
2023-02-09T16:58:04.601Z,55.84
2023-02-09T17:00:36.943Z,56.70
2023-02-09T17:03:13.968Z,56.01
2023-02-09T17:05:44.491Z,56.00
2023-02-09T17:08:18.052Z,55.94
2023-02-09T17:11:01.309Z,55.93
2023-02-09T17:13:30.933Z,55.61
2023-02-09T17:16:02.315Z,55.93
2023-02-09T17:18:33.357Z,55.34
2023-02-09T17:21:05.370Z,55.39
2023-02-09T17:23:33.133Z,55.33
2023-02-09T17:26:02.987Z,56.72
2023-02-09T17:28:31.664Z,54.96
2023-02-09T17:31:04.825Z,54.48
2023-02-09T17:33:36.264Z,54.36
2023-02-09T17:38:54.421Z,54.55
2023-02-09T17:41:29.570Z,54.02
2023-02-09T17:44:17.557Z,54.40
2023-02-09T17:46:49.604Z,54.41
2023-02-09T17:49:17.433Z,54.61
2023-02-09T17:51:47.448Z,54.02
2023-02-09T17:54:17.756Z,54.46
2023-02-09T17:56:48.376Z,54.23
2023-02-09T17:59:19.707Z,53.93
2023-02-09T18:01:50.652Z,53.85
2023-02-09T18:04:23.447Z,53.70
2023-02-09T18:06:51.500Z,54.13
2023-02-09T18:09:19.321Z,53.71
2023-02-09T18:12:02.102Z,53.96
2023-02-09T18:14:32.926Z,54.41
2023-02-09T18:17:00.901Z,54.41
2023-02-09T18:19:28.676Z,53.90
2023-02-09T18:21:59.252Z,53.58
2023-02-09T18:24:30.046Z,54.11
2023-02-09T18:26:59.380Z,53.42
2023-02-09T18:29:30.136Z,53.73
2023-02-09T18:31:58.909Z,53.92
2023-02-09T18:34:29.069Z,53.79
2023-02-09T18:36:57.126Z,53.53
2023-02-09T18:39:26.689Z,53.57
2023-02-09T18:41:55.221Z,54.19
2023-02-09T18:44:29.334Z,53.31
2023-02-09T18:47:00.340Z,53.63
2023-02-09T18:49:28.231Z,53.55
2023-02-09T18:51:57.009Z,53.25
2023-02-09T18:54:24.949Z,53.25
2023-02-09T18:56:54.557Z,53.16
2023-02-09T18:59:30.856Z,53.27
2023-02-09T19:01:59.074Z,53.35
2023-02-09T19:04:27.082Z,53.53
2023-02-09T19:06:55.328Z,53.17
2023-02-09T19:09:23.205Z,53.07
2023-02-09T19:11:52.022Z,53.06
2023-02-09T19:14:38.113Z,53.20
2023-02-09T19:17:09.335Z,53.09
2023-02-09T19:19:40.223Z,53.32
2023-02-09T19:22:15.061Z,53.34
2023-02-09T19:24:43.014Z,53.80
2023-02-09T19:27:11.577Z,53.46
2023-02-09T19:29:41.853Z,53.71
2023-02-09T19:32:12.630Z,54.06
2023-02-09T19:34:45.393Z,53.74
2023-02-09T19:37:16.267Z,54.20
2023-02-09T19:39:52.693Z,55.21
2023-02-09T19:42:21.567Z,54.45
2023-02-09T19:44:50.224Z,54.60
2023-02-09T19:47:25.490Z,54.85
2023-02-09T19:49:53.530Z,55.38
2023-02-09T19:52:21.462Z,55.66
2023-02-09T19:54:49.954Z,56.46
2023-02-09T19:57:17.747Z,56.63
2023-02-09T19:59:45.527Z,56.89
2023-02-09T20:02:13.937Z,58.41
2023-02-09T20:04:45.872Z,60.18
2023-02-09T20:07:14.813Z,62.27
2023-02-09T20:09:43.015Z,66.11
2023-02-09T20:12:10.789Z,69.10
2023-02-09T20:14:38.545Z,72.21
2023-02-09T20:17:06.212Z,74.55
2023-02-09T20:19:36.877Z,77.79
2023-02-09T20:22:06.038Z,80.16
2023-02-09T20:24:34.718Z,81.50
2023-02-09T20:27:02.522Z,82.50
2023-02-09T20:29:30.308Z,83.27
2023-02-09T20:31:58.527Z,82.06
2023-02-09T20:34:26.936Z,83.36
2023-02-09T20:36:58.254Z,83.74
2023-02-09T20:39:27.828Z,82.78
2023-02-09T20:42:16.697Z,82.33
2023-02-09T20:45:03.178Z,81.06
2023-02-09T20:47:31.119Z,80.98
2023-02-09T20:50:00.420Z,81.21
2023-02-09T20:52:31.288Z,81.97
2023-02-09T20:55:00.633Z,81.22
2023-02-09T20:57:30.216Z,81.30
2023-02-09T20:59:58.091Z,80.07
2023-02-09T21:02:28.970Z,80.26
2023-02-09T21:04:57.917Z,80.36
2023-02-09T21:07:26.429Z,80.92
2023-02-09T21:09:56.657Z,82.50
2023-02-09T21:12:25.864Z,82.95
2023-02-09T21:14:53.606Z,83.78
2023-02-09T21:17:22.186Z,83.85
2023-02-09T21:19:50.119Z,83.99
2023-02-09T21:22:18.273Z,83.98
2023-02-09T21:24:46.159Z,84.67
2023-02-09T21:27:14.451Z,85.31
2023-02-09T21:29:43.403Z,85.10
2023-02-09T21:32:13.967Z,85.04
2023-02-09T21:34:41.631Z,86.02
2023-02-09T21:37:12.723Z,86.01
2023-02-09T21:39:40.489Z,86.20
2023-02-09T21:42:29.434Z,87.32
2023-02-09T21:44:59.411Z,87.42
2023-02-09T21:47:28.294Z,88.37
2023-02-09T21:49:56.055Z,87.54
2023-02-09T21:52:24.620Z,88.48
2023-02-09T21:54:53.757Z,88.79
2023-02-09T21:57:23.157Z,89.18
2023-02-09T21:59:50.868Z,89.66
2023-02-09T22:02:21.583Z,90.31
2023-02-09T22:04:49.746Z,91.23
2023-02-09T22:07:17.622Z,91.28
2023-02-09T22:09:45.275Z,91.58
2023-02-09T22:12:13.001Z,92.35
2023-02-09T22:14:40.661Z,92.12
2023-02-09T22:17:08.609Z,93.19
2023-02-09T22:19:37.769Z,94.69
2023-02-09T22:22:05.637Z,94.09
2023-02-09T22:24:34.742Z,94.65
2023-02-09T22:27:02.552Z,95.33
2023-02-09T22:29:33.092Z,95.78
2023-02-09T22:32:00.810Z,96.33
2023-02-09T22:34:28.421Z,97.59
2023-02-09T22:36:57.426Z,97.67
2023-02-09T22:39:25.158Z,98.81
2023-02-09T22:41:57.885Z,99.65
2023-02-09T22:44:29.786Z,100.00
2023-02-09T22:46:58.678Z,100.00
2023-02-09T22:49:26.563Z,100.00
2023-02-09T22:51:54.199Z,100.00
2023-02-09T22:54:23.493Z,100.00
2023-02-09T22:56:52.218Z,100.00
2023-02-09T22:59:20.118Z,100.00
2023-02-09T23:01:48.515Z,100.00
2023-02-09T23:04:16.374Z,100.00
2023-02-09T23:06:44.147Z,100.00
2023-02-09T23:09:13.191Z,100.00
2023-02-09T23:11:44.102Z,100.00
2023-02-09T23:14:14.297Z,100.00
2023-02-09T23:16:44.206Z,100.00
2023-02-09T23:19:15.343Z,100.00
2023-02-09T23:21:44.653Z,100.00
2023-02-09T23:24:13.398Z,100.00
2023-02-09T23:26:45.445Z,100.00
2023-02-09T23:29:15.663Z,100.00
2023-02-09T23:31:44.496Z,100.00
2023-02-09T23:34:15.120Z,100.00
2023-02-09T23:36:43.163Z,100.00
2023-02-09T23:39:15.258Z,100.00
2023-02-09T23:41:44.637Z,100.00
2023-02-09T23:44:13.117Z,100.00
2023-02-09T23:46:41.639Z,100.00
2023-02-09T23:49:09.370Z,100.00
2023-02-09T23:51:37.391Z,100.00
2023-02-09T23:54:07.027Z,100.00
2023-02-09T23:56:37.053Z,100.00
2023-02-09T23:59:07.390Z,100.00
